Time;durP1;ratioP1;P1;durP2;ratioP2;P2;SDS_P1;SDS_P2;PMS_P1;PMS_P2;Temp;Humidity;BMP_temperature;BMP_pressure;BME280_temperature;BME280_humidity;BME280_pressure;Samples;Min_cycle;Max_cycle;Signal;HPM_P1;HPM_P2
2022/02/24 00:00:59;;;;;;;0.40;0.20;;;4.30;99.90;;;;;;4992918;28;20389;-69
2022/02/24 00:03:26;;;;;;;0.40;0.20;;;4.40;99.90;;;;;;4992946;28;20910;-69
2022/02/24 00:05:53;;;;;;;0.40;0.30;;;4.40;99.90;;;;;;4993694;28;20403;-69
2022/02/24 00:08:19;;;;;;;0.40;0.20;;;4.50;99.90;;;;;;4992922;28;20466;-70
2022/02/24 00:10:44;;;;;;;0.40;0.20;;;4.40;99.90;;;;;;4993409;28;20906;-70
2022/02/24 00:13:10;;;;;;;0.40;0.30;;;4.20;99.90;;;;;;4992626;28;20441;-70
2022/02/24 00:15:36;;;;;;;0.40;0.20;;;4.30;99.90;;;;;;4993539;28;20394;-70
2022/02/24 00:18:01;;;;;;;1.50;1.40;;;4.30;99.90;;;;;;4993560;28;20465;-70
2022/02/24 00:20:27;;;;;;;0.40;0.20;;;4.30;99.90;;;;;;4992459;28;21075;-70
2022/02/24 00:22:53;;;;;;;0.40;0.20;;;4.30;99.90;;;;;;4992940;28;20465;-70
2022/02/24 00:25:18;;;;;;;0.40;0.20;;;4.20;99.90;;;;;;4992791;28;20397;-70
2022/02/24 00:27:45;;;;;;;0.40;0.20;;;4.30;99.90;;;;;;4992818;28;20799;-70
2022/02/24 00:30:11;;;;;;;0.40;0.20;;;4.20;99.90;;;;;;4992960;28;20382;-70
2022/02/24 00:32:37;;;;;;;0.40;0.20;;;4.10;99.90;;;;;;4991864;28;21231;-69
2022/02/24 00:35:03;;;;;;;0.40;0.20;;;4.10;99.90;;;;;;4992530;28;20391;-70
2022/02/24 00:37:29;;;;;;;0.40;0.20;;;4.10;99.90;;;;;;4991524;28;20402;-70
2022/02/24 00:39:55;;;;;;;0.85;0.40;;;4.10;99.90;;;;;;4992819;28;20398;-70
2022/02/24 00:42:20;;;;;;;0.40;0.20;;;4.20;99.90;;;;;;4992307;28;20422;-70
2022/02/24 00:44:46;;;;;;;0.40;0.20;;;4.20;99.90;;;;;;4992196;28;20394;-70
2022/02/24 00:47:12;;;;;;;0.40;0.20;;;4.10;99.90;;;;;;4992968;28;20386;-70
2022/02/24 00:49:38;;;;;;;0.40;0.23;;;4.10;99.90;;;;;;4974607;28;20468;-70
2022/02/24 00:52:04;;;;;;;0.40;0.20;;;4.10;99.90;;;;;;4993118;28;20417;-70
2022/02/24 00:54:30;;;;;;;0.40;0.20;;;4.10;99.90;;;;;;4992025;28;20402;-70
2022/02/24 00:56:55;;;;;;;0.40;0.20;;;4.20;99.90;;;;;;4992452;28;20871;-70
2022/02/24 00:59:21;;;;;;;0.40;0.20;;;4.20;99.90;;;;;;4992751;28;20436;-70
2022/02/24 01:01:48;;;;;;;0.40;0.20;;;4.40;99.90;;;;;;4991439;28;20400;-70
2022/02/24 01:04:14;;;;;;;0.40;0.20;;;4.40;99.90;;;;;;4992570;28;20394;-70
2022/02/24 01:06:40;;;;;;;0.40;0.20;;;4.50;99.90;;;;;;4991503;28;20413;-70
2022/02/24 01:09:05;;;;;;;0.40;0.20;;;4.50;99.90;;;;;;4992768;28;20383;-70
2022/02/24 01:11:31;;;;;;;0.40;0.20;;;4.60;99.90;;;;;;4992144;28;20775;-70
2022/02/24 01:13:57;;;;;;;0.40;0.20;;;4.50;99.90;;;;;;4991901;28;20906;-70
2022/02/24 01:16:22;;;;;;;0.40;0.20;;;4.50;99.90;;;;;;4992462;28;20897;-70
2022/02/24 01:18:48;;;;;;;0.60;0.60;;;4.50;99.90;;;;;;4991615;28;20733;-71
2022/02/24 01:21:14;;;;;;;0.40;0.20;;;4.40;99.90;;;;;;4992109;28;20447;-69
2022/02/24 01:23:39;;;;;;;0.40;0.20;;;4.30;99.90;;;;;;4991564;28;20410;-70
2022/02/24 01:26:05;;;;;;;0.40;0.30;;;4.10;99.90;;;;;;4991012;28;21009;-70
2022/02/24 01:28:31;;;;;;;0.40;0.20;;;4.10;99.90;;;;;;4992153;28;20411;-70
2022/02/24 01:30:56;;;;;;;0.40;0.30;;;3.90;99.90;;;;;;4991614;28;20397;-70
2022/02/24 01:33:22;;;;;;;0.40;0.20;;;4.00;99.90;;;;;;4991856;28;20398;-70
2022/02/24 01:35:48;;;;;;;0.40;0.20;;;4.00;99.90;;;;;;4992430;28;20391;-69
2022/02/24 01:38:13;;;;;;;0.40;0.30;;;3.90;99.90;;;;;;4991024;28;20397;-69
2022/02/24 01:40:39;;;;;;;0.40;0.20;;;3.90;99.90;;;;;;4991685;28;20469;-70
2022/02/24 01:43:05;;;;;;;0.40;0.20;;;4.00;99.90;;;;;;4991221;28;20415;-70
2022/02/24 01:45:31;;;;;;;0.40;0.20;;;4.00;99.90;;;;;;4991556;28;20401;-70
2022/02/24 01:47:58;;;;;;;0.40;0.20;;;4.00;99.90;;;;;;4992023;28;20466;-70
2022/02/24 01:50:26;;;;;;;0.40;0.20;;;3.90;99.90;;;;;;4990968;28;20832;-70
2022/02/24 01:52:52;;;;;;;0.40;0.20;;;3.90;99.90;;;;;;4992039;28;20401;-70
2022/02/24 01:55:18;;;;;;;0.40;0.20;;;3.90;99.90;;;;;;4990925;28;20453;-70
2022/02/24 01:57:44;;;;;;;0.40;0.20;;;3.90;99.90;;;;;;4991906;28;20735;-69
2022/02/24 02:00:10;;;;;;;0.40;0.20;;;3.90;99.90;;;;;;4991961;28;20470;-69
2022/02/24 02:02:36;;;;;;;0.40;0.20;;;3.90;99.90;;;;;;4990257;28;20845;-69
2022/02/24 02:05:03;;;;;;;0.50;0.50;;;3.80;99.90;;;;;;4991707;28;20481;-70
2022/02/24 02:07:29;;;;;;;0.40;0.20;;;3.80;99.90;;;;;;4991014;28;20383;-70
2022/02/24 02:09:55;;;;;;;0.40;0.30;;;3.80;99.90;;;;;;4990917;28;20914;-70
2022/02/24 02:12:21;;;;;;;0.40;0.20;;;3.80;99.90;;;;;;4991259;28;20394;-70
2022/02/24 02:14:47;;;;;;;0.40;0.30;;;3.70;99.90;;;;;;4990576;28;20397;-70
2022/02/24 02:17:12;;;;;;;0.40;0.20;;;3.70;99.90;;;;;;4991244;28;20402;-70
2022/02/24 02:19:38;;;;;;;0.40;0.20;;;3.70;99.90;;;;;;4990582;28;20383;-70
2022/02/24 02:22:04;;;;;;;0.40;0.20;;;3.70;99.90;;;;;;4991581;28;20429;-70
2022/02/24 02:24:30;;;;;;;0.40;0.30;;;3.80;99.90;;;;;;4991036;28;20938;-70
2022/02/24 02:26:56;;;;;;;0.40;0.20;;;3.70;99.90;;;;;;4990312;28;20462;-70
2022/02/24 02:29:21;;;;;;;0.40;0.20;;;3.70;99.90;;;;;;4991210;28;20426;-70
2022/02/24 02:31:47;;;;;;;0.40;0.20;;;3.60;99.90;;;;;;4990692;28;20379;-70
2022/02/24 02:34:17;;;;;;;0.40;0.20;;;3.60;99.90;;;;;;4957583;28;20398;-70
2022/02/24 02:36:45;;;;;;;0.40;0.30;;;3.50;99.90;;;;;;4990757;28;20387;-69
2022/02/24 02:39:13;;;;;;;0.40;0.20;;;3.50;99.90;;;;;;4991335;28;20450;-69
2022/02/24 02:41:42;;;;;;;0.40;0.20;;;3.50;99.90;;;;;;4990993;28;20386;-70
2022/02/24 02:44:09;;;;;;;0.40;0.30;;;3.50;99.90;;;;;;4972719;28;21025;-70
2022/02/24 02:46:35;;;;;;;0.40;0.20;;;3.50;99.90;;;;;;4990680;28;20391;-69
2022/02/24 02:49:01;;;;;;;0.40;0.20;;;3.70;99.90;;;;;;4973058;28;20401;-70
2022/02/24 02:51:27;;;;;;;0.40;0.20;;;3.60;99.90;;;;;;4973390;28;20397;-70
2022/02/24 02:53:53;;;;;;;0.40;0.20;;;3.50;99.90;;;;;;4990933;28;20429;-70
2022/02/24 02:56:19;;;;;;;0.40;0.28;;;3.50;99.90;;;;;;4990965;28;20481;-70
2022/02/24 02:58:44;;;;;;;0.40;0.20;;;3.60;99.90;;;;;;4995008;28;20907;-70
2022/02/24 03:01:10;;;;;;;0.40;0.20;;;3.50;99.90;;;;;;4993786;28;20396;-70
2022/02/24 03:03:35;;;;;;;0.40;0.30;;;3.50;99.90;;;;;;4994605;28;20889;-70
2022/02/24 03:06:02;;;;;;;0.40;0.30;;;3.50;99.90;;;;;;4994126;28;20395;-70
2022/02/24 03:08:28;;;;;;;0.40;0.20;;;3.50;99.90;;;;;;4994263;28;20398;-70
2022/02/24 03:10:53;;;;;;;0.40;0.20;;;3.40;99.90;;;;;;4994417;28;20403;-70
2022/02/24 03:13:19;;;;;;;0.40;0.20;;;3.40;99.90;;;;;;4976366;28;20405;-70
2022/02/24 03:15:46;;;;;;;0.40;0.20;;;3.50;99.90;;;;;;4994118;28;20398;-70
2022/02/24 03:18:12;;;;;;;0.40;0.20;;;3.50;99.90;;;;;;4976387;28;20473;-69
2022/02/24 03:20:38;;;;;;;0.40;0.30;;;3.50;99.90;;;;;;4993954;28;20496;-70
2022/02/24 03:23:07;;;;;;;0.40;0.20;;;3.60;99.90;;;;;;4994166;28;20903;-69
2022/02/24 03:25:33;;;;;;;0.40;0.20;;;3.50;99.90;;;;;;4993625;28;20486;-70
2022/02/24 03:27:59;;;;;;;0.40;0.20;;;3.50;99.90;;;;;;4994759;28;20382;-70
2022/02/24 03:30:26;;;;;;;0.40;0.20;;;3.50;99.90;;;;;;4993015;28;20820;-70
2022/02/24 03:32:51;;;;;;;0.40;0.20;;;3.50;99.90;;;;;;4994990;28;20749;-69
2022/02/24 03:35:19;;;;;;;0.40;0.20;;;3.60;99.90;;;;;;4994273;28;20383;-69
2022/02/24 03:37:46;;;;;;;0.40;0.20;;;3.60;99.90;;;;;;4993533;28;20389;-70
2022/02/24 03:40:13;;;;;;;0.40;0.20;;;3.50;99.90;;;;;;4994075;28;20402;-69
2022/02/24 03:42:40;;;;;;;0.40;0.20;;;3.60;99.90;;;;;;4959718;28;20424;-70
2022/02/24 03:45:06;;;;;;;0.40;0.30;;;3.70;99.90;;;;;;4993908;28;20461;-68
2022/02/24 03:47:32;;;;;;;0.85;0.85;;;3.60;99.90;;;;;;4976404;28;20402;-69
2022/02/24 03:49:58;;;;;;;0.40;0.20;;;3.60;99.90;;;;;;4993553;28;20409;-69
2022/02/24 03:52:24;;;;;;;0.40;0.40;;;3.60;99.90;;;;;;4993905;28;20891;-69
2022/02/24 03:54:50;;;;;;;0.40;0.20;;;3.60;99.90;;;;;;4993285;28;20434;-69
2022/02/24 03:57:16;;;;;;;0.40;0.20;;;3.60;99.90;;;;;;4993995;28;20787;-69
2022/02/24 03:59:42;;;;;;;0.40;0.20;;;3.50;99.90;;;;;;4993350;28;20382;-69
2022/02/24 04:02:10;;;;;;;0.40;0.30;;;3.60;99.90;;;;;;4993266;28;20787;-69
2022/02/24 04:04:36;;;;;;;0.40;0.20;;;3.60;99.90;;;;;;4993715;28;20383;-69
2022/02/24 04:07:02;;;;;;;0.40;0.20;;;3.60;99.90;;;;;;4992557;28;20474;-69
2022/02/24 04:09:28;;;;;;;0.40;0.20;;;3.60;99.90;;;;;;4993355;28;20389;-69
2022/02/24 04:11:54;;;;;;;0.40;0.30;;;3.60;99.90;;;;;;4992704;28;20411;-68
2022/02/24 04:14:20;;;;;;;0.40;0.20;;;3.60;99.90;;;;;;4993231;28;20398;-69
2022/02/24 04:16:46;;;;;;;0.40;0.20;;;3.50;99.90;;;;;;4975847;28;20386;-69
2022/02/24 04:19:12;;;;;;;0.40;0.20;;;3.50;99.90;;;;;;4974943;28;20407;-70
2022/02/24 04:21:37;;;;;;;0.40;0.20;;;3.50;99.90;;;;;;4993644;28;20399;-69
2022/02/24 04:24:04;;;;;;;0.40;0.20;;;3.60;99.90;;;;;;4992604;28;20545;-68
2022/02/24 04:26:30;;;;;;;0.40;0.20;;;3.50;99.90;;;;;;4992940;28;20794;-68
2022/02/24 04:28:55;;;;;;;0.40;0.20;;;3.50;99.90;;;;;;4992977;28;20394;-68
2022/02/24 04:31:21;;;;;;;0.50;0.50;;;3.50;99.90;;;;;;4992462;28;20398;-69
2022/02/24 04:33:47;;;;;;;0.40;0.20;;;3.40;99.90;;;;;;4993410;28;20437;-68
2022/02/24 04:36:13;;;;;;;0.40;0.30;;;3.40;99.90;;;;;;4992670;28;20792;-69
2022/02/24 04:38:39;;;;;;;0.40;0.27;;;3.40;99.90;;;;;;4993290;28;20441;-69
2022/02/24 04:41:04;;;;;;;0.40;0.20;;;3.50;99.90;;;;;;4993593;28;20399;-69
2022/02/24 04:43:30;;;;;;;0.40;0.30;;;3.50;99.90;;;;;;4992421;28;20414;-69
2022/02/24 04:45:56;;;;;;;0.68;0.68;;;3.60;99.90;;;;;;4993026;28;20429;-69
2022/02/24 04:48:23;;;;;;;0.40;0.20;;;3.50;99.90;;;;;;4974914;28;20398;-68
2022/02/24 04:50:49;;;;;;;0.40;0.20;;;3.50;99.90;;;;;;4975621;28;20406;-69
2022/02/24 04:53:15;;;;;;;0.40;0.20;;;3.50;99.90;;;;;;4992581;28;20403;-69
2022/02/24 04:55:42;;;;;;;0.40;0.20;;;3.40;99.90;;;;;;4992174;28;20460;-69
2022/02/24 04:58:07;;;;;;;0.40;0.30;;;3.50;99.90;;;;;;4975476;28;20391;-69
2022/02/24 05:00:33;;;;;;;0.40;0.20;;;3.50;99.90;;;;;;4974603;28;20398;-68
2022/02/24 05:02:59;;;;;;;0.40;0.20;;;3.50;99.90;;;;;;4975245;28;20931;-69
2022/02/24 05:05:25;;;;;;;0.40;0.30;;;3.50;99.90;;;;;;4992873;28;20426;-69
2022/02/24 05:07:51;;;;;;;0.40;0.30;;;3.60;99.90;;;;;;4992117;28;20438;-69
2022/02/24 05:10:16;;;;;;;0.60;0.50;;;3.60;99.90;;;;;;4992598;28;20863;-69
2022/02/24 05:12:43;;;;;;;0.40;0.27;;;3.70;99.90;;;;;;4991507;28;20391;-69
2022/02/24 05:15:10;;;;;;;0.40;0.20;;;3.70;99.90;;;;;;4992256;28;20880;-69
2022/02/24 05:17:39;;;;;;;0.40;0.30;;;3.60;99.90;;;;;;4991988;28;20379;-68
2022/02/24 05:20:07;;;;;;;0.40;0.20;;;3.70;99.90;;;;;;4991365;28;20386;-68
2022/02/24 05:22:34;;;;;;;0.40;0.20;;;3.70;99.90;;;;;;4992217;28;20450;-70
2022/02/24 05:24:59;;;;;;;0.40;0.20;;;3.70;99.90;;;;;;4991624;28;20478;-69
2022/02/24 05:27:25;;;;;;;0.40;0.20;;;3.70;99.90;;;;;;4992074;28;20482;-70
2022/02/24 05:29:51;;;;;;;0.40;0.20;;;3.60;99.90;;;;;;4991174;28;20815;-69
2022/02/24 05:32:16;;;;;;;0.40;0.20;;;3.70;99.90;;;;;;4991771;28;20446;-69
2022/02/24 05:34:42;;;;;;;0.40;0.20;;;3.70;99.90;;;;;;4974300;28;20382;-69
2022/02/24 05:37:08;;;;;;;0.40;0.20;;;3.60;99.90;;;;;;4974100;28;20391;-69
2022/02/24 05:39:34;;;;;;;0.40;0.20;;;3.60;99.90;;;;;;4992193;28;20386;-69
2022/02/24 05:41:59;;;;;;;0.40;0.20;;;3.60;99.90;;;;;;4986107;28;20418;-69
2022/02/24 05:44:27;;;;;;;0.40;0.20;;;3.70;99.90;;;;;;4991703;28;20863;-69
2022/02/24 05:46:53;;;;;;;0.40;0.20;;;3.70;99.90;;;;;;4991969;28;20751;-69
2022/02/24 05:49:19;;;;;;;0.40;0.20;;;3.70;99.90;;;;;;4991130;28;20386;-69
2022/02/24 05:51:44;;;;;;;0.40;0.30;;;3.70;99.90;;;;;;4991578;28;20795;-69
2022/02/24 05:54:11;;;;;;;0.40;0.20;;;3.70;99.90;;;;;;4973378;28;20769;-69
2022/02/24 05:56:37;;;;;;;0.40;0.20;;;3.70;99.90;;;;;;4991830;28;20467;-69
2022/02/24 05:59:03;;;;;;;0.40;0.20;;;3.70;99.90;;;;;;4991411;28;20409;-69
2022/02/24 06:01:29;;;;;;;0.40;0.40;;;3.70;99.90;;;;;;4973759;28;20421;-69
2022/02/24 06:03:55;;;;;;;0.40;0.20;;;3.60;99.90;;;;;;4991771;28;20898;-69
2022/02/24 06:06:20;;;;;;;0.40;0.20;;;3.70;99.90;;;;;;4990780;28;20402;-69
2022/02/24 06:08:46;;;;;;;0.40;0.30;;;3.80;99.90;;;;;;4991269;28;20871;-68
2022/02/24 06:11:12;;;;;;;0.40;0.20;;;3.90;99.90;;;;;;4991091;28;20418;-68
2022/02/24 06:13:37;;;;;;;0.40;0.20;;;3.90;99.90;;;;;;4990590;28;20494;-69
2022/02/24 06:16:04;;;;;;;0.40;0.30;;;3.80;99.90;;;;;;4985481;28;20399;-69
2022/02/24 06:18:30;;;;;;;0.40;0.20;;;3.80;99.90;;;;;;4986061;28;20479;-69
2022/02/24 06:20:56;;;;;;;0.50;0.50;;;3.80;99.90;;;;;;4990746;28;20414;-69
2022/02/24 06:23:22;;;;;;;0.40;0.20;;;3.80;99.90;;;;;;4983670;28;20454;-70
2022/02/24 06:25:48;;;;;;;0.40;0.20;;;3.90;99.90;;;;;;4987572;28;20394;-69
2022/02/24 06:28:14;;;;;;;0.40;0.30;;;3.90;99.90;;;;;;4989640;28;20395;-69
2022/02/24 06:30:40;;;;;;;0.40;0.30;;;4.00;99.90;;;;;;4980516;28;20409;-69
2022/02/24 06:33:06;;;;;;;0.40;0.20;;;4.00;99.90;;;;;;4990653;28;20478;-69
2022/02/24 06:35:32;;;;;;;0.40;0.20;;;4.00;99.90;;;;;;4973573;28;20485;-69
2022/02/24 06:38:02;;;;;;;0.40;0.30;;;4.00;99.90;;;;;;4990538;28;20886;-69
2022/02/24 06:40:30;;;;;;;0.40;0.30;;;4.10;99.90;;;;;;4991197;28;20481;-69
2022/02/24 06:42:56;;;;;;;0.40;0.30;;;4.20;99.90;;;;;;4990258;28;20418;-69
2022/02/24 06:45:22;;;;;;;0.40;0.20;;;4.00;99.90;;;;;;4990858;28;20395;-69
2022/02/24 06:47:48;;;;;;;0.60;0.50;;;4.10;99.90;;;;;;4973444;28;20470;-69
2022/02/24 06:50:13;;;;;;;0.40;0.20;;;4.10;99.90;;;;;;4991382;28;20391;-69
2022/02/24 06:52:40;;;;;;;0.40;0.20;;;4.10;99.90;;;;;;4990995;28;20399;-69
2022/02/24 06:55:06;;;;;;;0.40;0.20;;;4.20;99.90;;;;;;4990415;28;20923;-69
2022/02/24 06:57:59;;;;;;;0.40;0.20;;;4.30;99.90;;;;;;4991023;28;20382;-69
2022/02/24 07:00:24;;;;;;;0.40;0.20;;;4.30;99.90;;;;;;4986013;28;20398;-69
2022/02/24 07:02:52;;;;;;;0.40;0.20;;;4.30;99.90;;;;;;4990487;28;20409;-70
2022/02/24 07:05:18;;;;;;;0.40;0.20;;;4.40;99.90;;;;;;4990933;28;20460;-70
2022/02/24 07:07:44;;;;;;;0.40;0.20;;;4.50;99.90;;;;;;4990802;28;20398;-70
2022/02/24 07:10:14;;;;;;;0.40;0.22;;;4.70;99.90;;;;;;4989729;28;20739;-70
2022/02/24 07:12:41;;;;;;;0.40;0.20;;;4.50;99.90;;;;;;4991146;28;20378;-70
2022/02/24 07:15:09;;;;;;;0.40;0.20;;;4.50;99.90;;;;;;4990022;28;20949;-71
2022/02/24 07:17:45;;;;;;;0.40;0.20;;;4.40;99.90;;;;;;4991127;28;20387;-70
2022/02/24 07:20:14;;;;;;;0.40;0.20;;;4.50;99.90;;;;;;4989245;28;20424;-71
2022/02/24 07:22:41;;;;;;;0.40;0.20;;;4.60;99.90;;;;;;4990562;28;20429;-70
2022/02/24 07:25:07;;;;;;;13.50;0.90;;;4.60;99.90;;;;;;4989843;28;20816;-70
2022/02/24 07:27:33;;;;;;;0.40;0.25;;;4.60;99.90;;;;;;4990616;28;20720;-69
2022/02/24 07:30:00;;;;;;;0.40;0.40;;;4.70;99.90;;;;;;4990893;28;20393;-69
2022/02/24 07:32:26;;;;;;;1.40;0.90;;;4.80;99.90;;;;;;4972052;28;20411;-69
2022/02/24 07:34:52;;;;;;;0.40;0.30;;;4.80;99.90;;;;;;4991015;28;20441;-69
2022/02/24 07:37:17;;;;;;;0.40;0.40;;;4.90;99.90;;;;;;4989943;28;20394;-69
2022/02/24 07:39:43;;;;;;;0.40;0.20;;;5.10;99.90;;;;;;4990139;28;20420;-70
2022/02/24 07:42:10;;;;;;;0.40;0.30;;;5.20;99.90;;;;;;4991096;28;20505;-69
2022/02/24 07:44:36;;;;;;;0.40;0.20;;;5.30;99.90;;;;;;4975928;28;20468;-69
2022/02/24 07:47:02;;;;;;;0.40;0.20;;;5.40;99.90;;;;;;4976741;28;20460;-69
2022/02/24 07:49:28;;;;;;;0.40;0.23;;;5.40;99.90;;;;;;4992548;28;20390;-70
2022/02/24 07:51:54;;;;;;;0.40;0.22;;;5.50;99.90;;;;;;4994300;28;20398;-69
2022/02/24 07:54:23;;;;;;;0.40;0.20;;;5.70;99.90;;;;;;4976638;28;20507;-69
2022/02/24 07:56:50;;;;;;;0.40;0.20;;;5.80;99.90;;;;;;4993241;28;20414;-69
2022/02/24 07:59:16;;;;;;;0.50;0.50;;;5.90;99.90;;;;;;4993850;28;20395;-69
2022/02/24 08:01:42;;;;;;;0.40;0.20;;;6.00;99.90;;;;;;4975537;28;20473;-69
2022/02/24 08:04:09;;;;;;;0.40;0.30;;;6.20;99.90;;;;;;4993103;28;20438;-70
2022/02/24 08:06:35;;;;;;;0.40;0.40;;;6.30;99.90;;;;;;4993354;28;20492;-69
2022/02/24 08:09:03;;;;;;;0.40;0.20;;;6.50;99.90;;;;;;4993287;28;20508;-69
2022/02/24 08:11:29;;;;;;;0.40;0.20;;;6.60;99.90;;;;;;4993210;28;20434;-69
2022/02/24 08:13:54;;;;;;;0.70;0.60;;;6.70;99.90;;;;;;4993022;28;20399;-69
2022/02/24 08:16:20;;;;;;;0.40;0.20;;;6.60;99.90;;;;;;4993559;28;20391;-69
2022/02/24 08:18:46;;;;;;;0.40;0.20;;;6.80;99.90;;;;;;4992668;28;20493;-69
2022/02/24 08:21:12;;;;;;;0.40;0.20;;;6.80;99.90;;;;;;4975791;28;20466;-69
2022/02/24 08:23:38;;;;;;;0.40;0.20;;;7.00;99.90;;;;;;4987970;28;20421;-70
2022/02/24 08:26:03;;;;;;;0.40;0.30;;;7.20;99.90;;;;;;4992068;28;20987;-70
2022/02/24 08:28:29;;;;;;;0.40;0.28;;;7.40;99.90;;;;;;4975720;28;20449;-70
2022/02/24 08:30:55;;;;;;;0.40;0.20;;;7.40;99.90;;;;;;4991946;28;20485;-69
2022/02/24 08:33:20;;;;;;;0.40;0.20;;;7.40;99.90;;;;;;4993239;28;20437;-69
2022/02/24 08:35:46;;;;;;;0.40;0.20;;;7.60;99.90;;;;;;4975937;28;20819;-69
2022/02/24 08:38:12;;;;;;;0.40;0.30;;;7.70;99.90;;;;;;4992242;28;20415;-69
2022/02/24 08:40:37;;;;;;;0.40;0.30;;;7.90;99.90;;;;;;4975483;28;20398;-69
2022/02/24 08:43:04;;;;;;;0.70;0.60;;;8.00;99.90;;;;;;4992318;28;20545;-69
2022/02/24 08:45:30;;;;;;;0.40;0.40;;;8.20;99.90;;;;;;4992975;28;20749;-69
2022/02/24 08:47:56;;;;;;;0.50;0.50;;;8.20;99.90;;;;;;4992518;28;20418;-69
2022/02/24 08:50:22;;;;;;;0.40;0.40;;;8.40;99.90;;;;;;4992015;28;20576;-69
2022/02/24 08:52:48;;;;;;;0.40;0.30;;;8.50;99.90;;;;;;4975499;28;20412;-69
2022/02/24 08:55:13;;;;;;;0.40;0.20;;;8.70;99.90;;;;;;4973565;28;20437;-69
2022/02/24 08:57:39;;;;;;;0.40;0.30;;;9.10;99.90;;;;;;4993320;28;20390;-70
2022/02/24 09:00:08;;;;;;;0.40;0.20;;;9.20;99.90;;;;;;4992745;28;20387;-70
2022/02/24 09:02:34;;;;;;;0.40;0.20;;;9.80;96.30;;;;;;4992039;28;20481;-70
2022/02/24 09:05:01;;;;;;;0.40;0.20;;;10.70;83.20;;;;;;4992741;28;20448;-70
2022/02/24 09:07:27;;;;;;;0.40;0.20;;;11.50;73.90;;;;;;4992198;28;20399;-70
2022/02/24 09:09:53;;;;;;;0.40;0.20;;;11.80;70.80;;;;;;4992221;28;20394;-70
2022/02/24 09:12:19;;;;;;;0.40;0.28;;;11.90;68.30;;;;;;4973900;28;20775;-70
2022/02/24 09:14:44;;;;;;;0.40;0.20;;;12.10;67.20;;;;;;4992455;28;20890;-70
2022/02/24 09:17:10;;;;;;;0.40;0.20;;;12.20;66.70;;;;;;4992976;28;20390;-70
2022/02/24 09:19:39;;;;;;;0.40;0.20;;;12.20;65.70;;;;;;4991624;28;20448;-70
2022/02/24 09:22:07;;;;;;;0.40;0.30;;;12.30;66.70;;;;;;4992691;28;20414;-70
2022/02/24 09:24:33;;;;;;;0.40;0.20;;;12.30;64.40;;;;;;4991122;28;20926;-70
2022/02/24 09:26:59;;;;;;;0.40;0.30;;;12.40;64.40;;;;;;4992392;28;20767;-70
2022/02/24 09:29:25;;;;;;;0.40;0.20;;;12.50;64.40;;;;;;4991863;28;20390;-71
2022/02/24 09:31:51;;;;;;;0.40;0.30;;;12.50;63.50;;;;;;4992148;28;20437;-70
2022/02/24 09:34:17;;;;;;;0.60;0.60;;;12.40;63.20;;;;;;4992200;28;20867;-70
2022/02/24 09:36:43;;;;;;;0.50;0.50;;;12.40;62.80;;;;;;4991495;28;20382;-70
2022/02/24 09:39:09;;;;;;;0.40;0.30;;;12.30;62.90;;;;;;4991879;28;20434;-70
2022/02/24 09:41:35;;;;;;;0.40;0.20;;;12.50;63.70;;;;;;4990812;28;20731;-70
2022/02/24 09:44:01;;;;;;;0.40;0.20;;;12.40;63.70;;;;;;4991722;28;20493;-70
2022/02/24 09:46:29;;;;;;;0.40;0.20;;;12.40;63.60;;;;;;4991530;28;20408;-70
2022/02/24 09:48:56;;;;;;;0.40;0.30;;;12.40;63.70;;;;;;4991151;28;20522;-70
2022/02/24 09:51:22;;;;;;;0.40;0.20;;;12.40;64.90;;;;;;4991514;28;20504;-70
2022/02/24 09:53:49;;;;;;;0.40;0.20;;;12.30;64.30;;;;;;4991294;28;20751;-69
2022/02/24 09:56:23;;;;;;;0.40;0.30;;;12.40;64.80;;;;;;4991867;28;20394;-69
2022/02/24 09:58:50;;;;;;;0.40;0.40;;;12.40;64.70;;;;;;4991252;28;20464;-69
2022/02/24 10:01:17;;;;;;;0.40;0.30;;;12.40;65.30;;;;;;4974425;28;20954;-69
2022/02/24 10:03:56;;;;;;;0.40;0.20;;;12.40;65.00;;;;;;4991394;28;20469;-72
2022/02/24 10:06:42;;;;;;;0.40;0.30;;;12.30;65.30;;;;;;4991455;28;20433;-69
2022/02/24 10:09:09;;;;;;;0.40;0.20;;;12.20;66.00;;;;;;4973626;28;20386;-68
2022/02/24 10:11:36;;;;;;;0.40;0.20;;;12.40;66.40;;;;;;4991174;28;20401;-69
2022/02/24 10:14:05;;;;;;;0.40;0.20;;;12.40;67.10;;;;;;4990938;28;20383;-69
2022/02/24 10:16:49;;;;;;;0.40;0.30;;;12.50;66.80;;;;;;4991059;28;20942;-69
2022/02/24 10:19:15;;;;;;;0.40;0.30;;;12.40;66.90;;;;;;4990688;28;20401;-69
2022/02/24 10:22:01;;;;;;;0.40;0.20;;;12.50;66.80;;;;;;4990718;28;20414;-69
2022/02/24 10:24:28;;;;;;;0.40;0.30;;;12.50;67.30;;;;;;4990667;28;20395;-69
2022/02/24 10:27:21;;;;;;;0.40;0.20;;;12.60;67.00;;;;;;4991272;28;20383;-69
2022/02/24 10:30:00;;;;;;;0.40;0.20;;;12.70;66.90;;;;;;4991133;28;20391;-70
2022/02/24 10:32:34;;;;;;;0.40;0.30;;;12.80;66.60;;;;;;4990848;28;20395;-70
2022/02/24 10:35:24;;;;;;;0.40;0.40;;;13.10;66.60;;;;;;4991398;28;20389;-69
2022/02/24 10:38:06;;;;;;;0.40;0.20;;;13.20;65.60;;;;;;4991333;28;20445;-69
2022/02/24 10:40:39;;;;;;;0.40;0.30;;;13.20;66.80;;;;;;4991047;28;20394;-69
2022/02/24 10:43:22;;;;;;;0.40;0.30;;;13.30;65.60;;;;;;4991150;28;20421;-70
2022/02/24 10:46:03;;;;;;;0.40;0.30;;;13.30;65.00;;;;;;4991396;28;20402;-69
2022/02/24 10:48:32;;;;;;;0.40;0.20;;;13.30;64.90;;;;;;4990945;28;20833;-70
2022/02/24 10:51:05;;;;;;;0.40;0.20;;;13.40;65.70;;;;;;4991099;28;20399;-69
2022/02/24 10:53:37;;;;;;;0.40;0.30;;;13.30;64.80;;;;;;4990417;28;20474;-69
2022/02/24 10:56:07;;;;;;;0.40;0.20;;;13.40;65.00;;;;;;4990950;28;20863;-70
2022/02/24 10:58:44;;;;;;;0.40;0.20;;;13.30;64.40;;;;;;4990401;28;20485;-71
2022/02/24 11:01:11;;;;;;;0.40;0.30;;;13.20;64.70;;;;;;4991236;28;20787;-70
2022/02/24 11:03:39;;;;;;;0.40;0.20;;;13.10;65.70;;;;;;4989969;28;20962;-70
2022/02/24 11:06:06;;;;;;;0.40;0.20;;;13.40;65.60;;;;;;4990909;28;20465;-71
2022/02/24 11:08:33;;;;;;;0.40;0.20;;;13.30;64.40;;;;;;4990351;28;20399;-70
2022/02/24 11:11:00;;;;;;;0.40;0.20;;;13.50;65.30;;;;;;4973168;28;20419;-70
2022/02/24 11:13:28;;;;;;;0.40;0.22;;;13.50;64.40;;;;;;4990770;28;20418;-70
2022/02/24 11:15:55;;;;;;;0.40;0.20;;;13.50;64.70;;;;;;4989861;28;20852;-70
2022/02/24 11:18:22;;;;;;;0.40;0.20;;;13.60;65.10;;;;;;4988062;28;20449;-69
2022/02/24 11:20:48;;;;;;;0.40;0.30;;;13.50;63.20;;;;;;4993653;28;20513;-70
2022/02/24 11:23:15;;;;;;;0.40;0.30;;;13.50;63.60;;;;;;4994226;28;20497;-69
2022/02/24 11:25:51;;;;;;;0.40;0.20;;;13.50;65.10;;;;;;4992961;28;20474;-70
2022/02/24 11:28:19;;;;;;;0.40;0.20;;;13.70;63.60;;;;;;4993826;28;20406;-69
2022/02/24 11:30:51;;;;;;;0.40;0.20;;;13.80;64.30;;;;;;4993822;28;20473;-69
2022/02/24 11:33:17;;;;;;;0.40;0.20;;;14.00;63.50;;;;;;4994784;28;20391;-69
2022/02/24 11:35:43;;;;;;;0.40;0.20;;;13.80;63.40;;;;;;4993738;28;20387;-70
2022/02/24 11:38:13;;;;;;;0.40;0.30;;;13.50;64.00;;;;;;4994496;28;20391;-70
2022/02/24 11:40:40;;;;;;;0.40;0.20;;;13.70;64.50;;;;;;4994362;28;20383;-69
2022/02/24 11:43:10;;;;;;;0.40;0.20;;;14.00;64.70;;;;;;4993334;28;20402;-70
2022/02/24 11:45:37;;;;;;;0.40;0.20;;;13.90;65.20;;;;;;4994277;28;20413;-69
2022/02/24 11:48:07;;;;;;;0.40;0.20;;;13.80;63.80;;;;;;4993538;28;20402;-70
2022/02/24 11:50:39;;;;;;;0.40;0.30;;;14.00;64.30;;;;;;4993852;28;20461;-69
2022/02/24 11:53:08;;;;;;;0.40;0.40;;;13.90;64.40;;;;;;4993433;28;20406;-69
2022/02/24 11:55:41;;;;;;;0.40;0.20;;;13.90;65.00;;;;;;4993859;28;20381;-70
2022/02/24 11:58:35;;;;;;;0.40;0.20;;;13.80;65.20;;;;;;4993159;28;20485;-70
2022/02/24 12:01:27;;;;;;;0.40;0.20;;;13.90;65.60;;;;;;4956467;28;20391;-71
2022/02/24 12:03:59;;;;;;;0.40;0.20;;;13.70;66.80;;;;;;4993913;28;20420;-69
2022/02/24 12:06:44;;;;;;;0.40;0.20;;;13.60;66.00;;;;;;4993617;28;20394;-68
2022/02/24 12:09:10;;;;;;;0.40;0.30;;;13.70;64.90;;;;;;4993104;28;20387;-68
2022/02/24 12:11:40;;;;;;;0.40;0.20;;;13.90;65.50;;;;;;4992583;28;20414;-70
2022/02/24 12:14:24;;;;;;;0.40;0.30;;;14.00;63.10;;;;;;4987511;28;20406;-70
2022/02/24 12:17:04;;;;;;;0.40;0.30;;;14.80;63.00;;;;;;4990336;28;20398;-68
2022/02/24 12:19:45;;;;;;;0.40;0.30;;;15.50;58.90;;;;;;4992917;28;20387;-68
2022/02/24 12:22:16;;;;;;;0.40;0.30;;;15.30;59.40;;;;;;4992181;28;20413;-70
2022/02/24 12:24:44;;;;;;;0.40;0.30;;;15.30;59.60;;;;;;4992557;28;20787;-69
2022/02/24 12:27:46;;;;;;;0.40;0.20;;;15.00;60.10;;;;;;4992957;28;20386;-70
2022/02/24 12:30:15;;;;;;;0.40;0.20;;;14.90;60.40;;;;;;4992615;28;20831;-69
2022/02/24 12:32:54;;;;;;;0.40;0.20;;;14.50;62.20;;;;;;4992733;28;20398;-69
2022/02/24 12:35:22;;;;;;;0.40;0.20;;;14.30;62.60;;;;;;4992673;28;20805;-71
2022/02/24 12:37:50;;;;;;;0.40;0.20;;;14.10;63.50;;;;;;4975032;28;20899;-71
2022/02/24 12:40:36;;;;;;;0.40;0.20;;;14.10;64.10;;;;;;4993301;28;20474;-69
2022/02/24 12:43:05;;;;;;;0.40;0.30;;;14.40;64.20;;;;;;4993031;28;20414;-69
2022/02/24 12:45:32;;;;;;;0.50;0.50;;;14.20;64.90;;;;;;4992129;28;20387;-69
2022/02/24 12:48:00;;;;;;;0.40;0.20;;;13.90;65.50;;;;;;4992985;28;20394;-68
2022/02/24 12:50:32;;;;;;;0.40;0.30;;;14.00;65.50;;;;;;4991901;28;20398;-71
2022/02/24 12:53:25;;;;;;;0.40;0.20;;;13.90;66.10;;;;;;4992837;28;20390;-70
2022/02/24 12:55:56;;;;;;;0.40;0.20;;;13.60;67.20;;;;;;4989569;28;20398;-70